createdAt,value
2022-12-03T00:00:44.026Z,3.30
2022-12-03T00:03:10.847Z,3.30
2022-12-03T00:05:37.745Z,3.20
2022-12-03T00:08:06.442Z,3.30
2022-12-03T00:10:33.195Z,3.30
2022-12-03T00:12:59.896Z,3.30
2022-12-03T00:15:26.782Z,3.30
2022-12-03T00:17:53.473Z,3.30
2022-12-03T00:20:26.347Z,3.30
2022-12-03T00:22:53.022Z,3.30
2022-12-03T00:25:19.792Z,3.30
2022-12-03T00:27:46.651Z,3.30
2022-12-03T00:30:14.139Z,3.30
2022-12-03T00:32:40.879Z,3.20
2022-12-03T00:35:08.046Z,3.20
2022-12-03T00:37:35.247Z,3.20
2022-12-03T00:40:04.877Z,3.20
2022-12-03T00:42:31.717Z,3.30
2022-12-03T00:44:58.549Z,3.30
2022-12-03T00:47:25.369Z,3.30
2022-12-03T00:49:52.082Z,3.30
2022-12-03T00:52:19.169Z,3.30
2022-12-03T00:54:45.955Z,3.30
2022-12-03T00:57:12.680Z,3.30
2022-12-03T00:59:39.382Z,3.30
2022-12-03T01:02:06.178Z,3.30
2022-12-03T01:04:34.130Z,3.30
2022-12-03T01:07:02.349Z,3.30
2022-12-03T01:09:29.062Z,3.30
2022-12-03T01:11:55.750Z,3.30
2022-12-03T01:14:23.107Z,3.30
2022-12-03T01:16:49.969Z,3.30
2022-12-03T01:19:19.960Z,3.30
2022-12-03T01:21:50.561Z,3.20
2022-12-03T01:24:19.163Z,3.30
2022-12-03T01:26:46.040Z,3.30
2022-12-03T01:29:13.987Z,3.30
2022-12-03T01:31:59.182Z,3.20
2022-12-03T01:34:26.072Z,3.20
2022-12-03T01:36:52.820Z,3.20
2022-12-03T01:39:20.166Z,3.20
2022-12-03T01:41:49.072Z,3.20
2022-12-03T01:44:29.932Z,3.20
2022-12-03T01:47:01.259Z,3.20
2022-12-03T01:49:48.130Z,3.20
2022-12-03T01:52:20.562Z,3.20
2022-12-03T01:54:52.637Z,3.20
2022-12-03T01:57:28.555Z,3.20
2022-12-03T01:59:59.983Z,3.20
2022-12-03T02:02:30.187Z,3.30
2022-12-03T02:05:00.043Z,3.30
2022-12-03T02:07:33.716Z,3.20
2022-12-03T02:10:06.144Z,3.20
2022-12-03T02:12:47.413Z,3.20
2022-12-03T02:15:14.521Z,3.20
2022-12-03T02:17:42.105Z,3.30
2022-12-03T02:20:11.698Z,3.30
2022-12-03T02:22:57.555Z,3.30
2022-12-03T02:25:31.874Z,3.30
2022-12-03T02:28:00.279Z,3.30
2022-12-03T02:30:29.829Z,3.40
2022-12-03T02:32:58.370Z,3.40
2022-12-03T02:35:37.487Z,3.30
2022-12-03T02:38:23.028Z,3.40
2022-12-03T02:40:56.740Z,3.40
2022-12-03T02:43:25.289Z,3.40
2022-12-03T02:45:56.324Z,3.40
2022-12-03T02:48:35.318Z,3.30
2022-12-03T02:51:11.218Z,3.40
2022-12-03T02:53:44.383Z,3.40
2022-12-03T02:56:16.343Z,3.40
2022-12-03T02:58:48.357Z,3.40
2022-12-03T03:01:16.968Z,3.40
2022-12-03T03:03:47.214Z,3.40
2022-12-03T03:06:15.977Z,3.50
2022-12-03T03:08:44.037Z,3.50
2022-12-03T03:11:14.339Z,3.50
2022-12-03T03:13:41.226Z,3.50
2022-12-03T03:16:09.362Z,3.50
2022-12-03T03:18:36.977Z,3.40
2022-12-03T03:21:05.038Z,3.40
2022-12-03T03:23:32.499Z,3.40
2022-12-03T03:26:09.184Z,3.40
2022-12-03T03:28:41.499Z,3.40
2022-12-03T03:31:13.669Z,3.50
2022-12-03T03:33:43.424Z,3.50
2022-12-03T03:36:11.119Z,3.50
2022-12-03T03:38:39.138Z,3.50
2022-12-03T03:41:10.867Z,3.60
2022-12-03T03:43:40.783Z,3.60
2022-12-03T03:46:08.561Z,3.60
2022-12-03T03:48:36.170Z,3.50
2022-12-03T03:51:09.154Z,3.60
2022-12-03T03:53:44.116Z,3.60
2022-12-03T03:56:11.927Z,3.50
2022-12-03T03:58:38.904Z,3.50
2022-12-03T04:01:06.110Z,3.50
2022-12-03T04:03:34.651Z,3.50
2022-12-03T04:06:01.390Z,3.60
2022-12-03T04:08:28.255Z,3.60
2022-12-03T04:11:13.260Z,3.60
2022-12-03T04:13:40.001Z,3.60
2022-12-03T04:16:07.274Z,3.60
2022-12-03T04:18:42.836Z,3.60
2022-12-03T04:21:40.743Z,3.60
2022-12-03T04:24:09.817Z,3.70
2022-12-03T04:26:55.445Z,3.60
2022-12-03T04:29:22.783Z,3.70
2022-12-03T04:32:08.491Z,3.60
2022-12-03T04:34:54.221Z,3.70
2022-12-03T04:37:21.305Z,3.60
2022-12-03T04:39:48.223Z,3.60
2022-12-03T04:42:14.990Z,3.60
2022-12-03T04:44:41.920Z,3.60
2022-12-03T04:47:16.942Z,3.60
2022-12-03T04:49:49.096Z,3.60
2022-12-03T04:52:32.646Z,3.70
2022-12-03T04:54:59.377Z,3.70
2022-12-03T04:57:26.070Z,3.70
2022-12-03T04:59:52.763Z,3.60
2022-12-03T05:02:20.752Z,3.60
2022-12-03T05:04:47.606Z,3.60
2022-12-03T05:07:14.354Z,3.60
2022-12-03T05:09:41.124Z,3.60
2022-12-03T05:12:07.908Z,3.60
2022-12-03T05:14:34.631Z,3.60
2022-12-03T05:17:01.517Z,3.60
2022-12-03T05:19:48.310Z,3.70
2022-12-03T05:22:15.061Z,3.70
2022-12-03T05:24:41.777Z,3.70
2022-12-03T05:27:08.516Z,3.70
2022-12-03T05:29:35.214Z,3.70
2022-12-03T05:32:01.952Z,3.70
2022-12-03T05:34:28.637Z,3.70
2022-12-03T05:36:58.020Z,3.70
2022-12-03T05:39:24.944Z,3.70
2022-12-03T05:42:11.060Z,3.70
2022-12-03T05:44:52.045Z,3.70
2022-12-03T05:47:19.939Z,3.60
2022-12-03T05:49:46.677Z,3.70
2022-12-03T05:52:13.479Z,3.70
2022-12-03T05:54:40.218Z,3.70
2022-12-03T05:57:07.019Z,3.60
2022-12-03T05:59:34.643Z,3.60
2022-12-03T06:02:02.814Z,3.60
2022-12-03T06:04:29.569Z,3.70
2022-12-03T06:06:56.396Z,3.70
2022-12-03T06:09:23.153Z,3.70
2022-12-03T06:11:53.966Z,3.70
2022-12-03T06:14:21.701Z,3.70
2022-12-03T06:16:48.384Z,3.70
2022-12-03T06:19:15.128Z,3.70
2022-12-03T06:21:41.818Z,3.60
2022-12-03T06:24:08.586Z,3.60
2022-12-03T06:26:35.392Z,3.60
2022-12-03T06:29:02.073Z,3.60
2022-12-03T06:31:28.867Z,3.60
2022-12-03T06:33:55.641Z,3.60
2022-12-03T06:36:23.416Z,3.60
2022-12-03T06:38:50.407Z,3.60
2022-12-03T06:41:17.076Z,3.60
2022-12-03T06:43:43.793Z,3.60
2022-12-03T06:46:10.532Z,3.60
2022-12-03T06:48:37.314Z,3.60
2022-12-03T06:51:04.204Z,3.50
2022-12-03T06:53:30.873Z,3.60
2022-12-03T06:55:58.269Z,3.50
2022-12-03T06:58:27.642Z,3.50
2022-12-03T07:00:54.379Z,3.50
2022-12-03T07:03:21.177Z,3.50
2022-12-03T07:05:47.961Z,3.50
2022-12-03T07:08:14.684Z,3.50
2022-12-03T07:10:41.387Z,3.60
2022-12-03T07:13:08.104Z,3.50
2022-12-03T07:15:34.843Z,3.60
2022-12-03T07:18:01.622Z,3.50
2022-12-03T07:20:28.346Z,3.50
2022-12-03T07:22:55.090Z,3.50
2022-12-03T07:25:24.849Z,3.50
2022-12-03T07:27:51.538Z,3.50
2022-12-03T07:30:18.718Z,3.50
2022-12-03T07:32:47.647Z,3.50
2022-12-03T07:35:15.823Z,3.50
2022-12-03T07:37:45.443Z,3.60
2022-12-03T07:40:15.673Z,3.60
2022-12-03T07:42:42.412Z,3.50
2022-12-03T07:45:12.184Z,3.50
2022-12-03T07:47:38.920Z,3.50
2022-12-03T07:50:06.565Z,3.40
2022-12-03T07:52:33.270Z,3.40
2022-12-03T07:54:59.999Z,3.40
2022-12-03T07:57:26.707Z,3.50
2022-12-03T07:59:53.394Z,3.40
2022-12-03T08:02:21.807Z,3.40
2022-12-03T08:04:48.829Z,3.40
2022-12-03T08:07:15.545Z,3.40
2022-12-03T08:09:42.983Z,3.40
2022-12-03T08:12:22.834Z,3.40
2022-12-03T08:14:49.871Z,3.40
2022-12-03T08:17:19.697Z,3.40
2022-12-03T08:19:48.050Z,3.40
2022-12-03T08:22:16.807Z,3.40
2022-12-03T08:24:43.958Z,3.40
2022-12-03T08:27:19.157Z,3.30
2022-12-03T08:30:00.982Z,3.40
2022-12-03T08:32:27.942Z,3.50
2022-12-03T08:34:55.050Z,3.50
2022-12-03T08:37:21.932Z,3.60
2022-12-03T08:39:52.936Z,3.50
2022-12-03T08:42:42.755Z,3.50
2022-12-03T08:45:35.090Z,3.50
2022-12-03T08:48:26.833Z,3.40
2022-12-03T08:51:01.721Z,3.40
2022-12-03T08:53:50.300Z,3.40
2022-12-03T08:56:29.991Z,3.40
2022-12-03T08:59:24.250Z,3.40
2022-12-03T09:01:53.405Z,3.30
2022-12-03T09:04:36.031Z,3.40
2022-12-03T09:07:04.799Z,3.40
2022-12-03T09:09:31.699Z,3.40
2022-12-03T09:11:58.504Z,3.40
2022-12-03T09:14:25.298Z,3.40
2022-12-03T09:16:56.189Z,3.30
2022-12-03T09:19:26.137Z,3.30
2022-12-03T09:21:54.528Z,3.30
2022-12-03T09:24:21.745Z,3.30
2022-12-03T09:26:48.723Z,3.40
2022-12-03T09:29:15.506Z,3.40
2022-12-03T09:31:42.416Z,3.40
2022-12-03T09:34:09.542Z,3.40
2022-12-03T09:36:36.303Z,3.40
2022-12-03T09:39:03.193Z,3.40
2022-12-03T09:41:29.988Z,3.40
2022-12-03T09:44:05.606Z,3.40
2022-12-03T09:46:35.912Z,3.40
2022-12-03T09:49:10.771Z,3.40
2022-12-03T09:51:39.593Z,3.40
2022-12-03T09:54:07.918Z,3.40
2022-12-03T09:56:37.996Z,3.40
2022-12-03T09:59:33.139Z,3.30
2022-12-03T10:02:01.307Z,3.40
2022-12-03T10:04:37.389Z,3.30
2022-12-03T10:07:04.144Z,3.30
2022-12-03T10:09:30.873Z,3.40
2022-12-03T10:11:59.956Z,3.30
2022-12-03T10:14:28.602Z,3.40
2022-12-03T10:16:55.926Z,3.40
2022-12-03T10:19:29.589Z,3.50
2022-12-03T10:21:56.306Z,3.50
2022-12-03T10:24:32.669Z,3.60
2022-12-03T10:27:03.240Z,3.40
2022-12-03T10:29:34.803Z,3.40
2022-12-03T10:32:10.150Z,3.30
2022-12-03T10:34:40.743Z,3.30
2022-12-03T10:37:20.095Z,3.30
2022-12-03T10:39:59.647Z,3.40
2022-12-03T10:42:33.680Z,3.30
2022-12-03T10:45:20.567Z,3.30
2022-12-03T10:48:11.602Z,3.30
2022-12-03T10:50:48.087Z,3.30
2022-12-03T10:53:14.906Z,3.30
2022-12-03T10:55:45.163Z,3.30
2022-12-03T10:58:29.175Z,3.30
2022-12-03T11:00:58.535Z,3.40
2022-12-03T11:03:28.842Z,3.30
2022-12-03T11:06:00.702Z,3.40
2022-12-03T11:08:33.254Z,3.40
2022-12-03T11:11:17.427Z,3.30
2022-12-03T11:13:55.205Z,3.30
2022-12-03T11:16:40.297Z,3.30
2022-12-03T11:19:13.453Z,3.20
2022-12-03T11:22:05.161Z,3.30
2022-12-03T11:24:35.201Z,3.20
2022-12-03T11:27:01.922Z,3.30
2022-12-03T11:29:56.954Z,3.30
2022-12-03T11:32:39.340Z,3.30
2022-12-03T11:35:26.001Z,3.30
2022-12-03T11:37:53.094Z,3.30
2022-12-03T11:40:22.319Z,3.30
2022-12-03T11:43:09.728Z,3.30
2022-12-03T11:45:38.740Z,3.30
2022-12-03T11:48:14.316Z,3.30
2022-12-03T11:50:45.105Z,3.20
2022-12-03T11:53:19.020Z,3.20
2022-12-03T11:56:08.769Z,3.20
2022-12-03T11:58:43.540Z,3.20
2022-12-03T12:01:10.354Z,3.20
2022-12-03T12:03:50.313Z,3.20
2022-12-03T12:06:21.040Z,3.30
2022-12-03T12:09:00.094Z,3.30
2022-12-03T12:11:59.389Z,3.20
2022-12-03T12:14:27.227Z,3.20
2022-12-03T12:16:55.365Z,3.20
2022-12-03T12:19:44.048Z,3.20
2022-12-03T12:22:18.254Z,3.20
2022-12-03T12:24:59.910Z,3.20
2022-12-03T12:27:45.169Z,3.10
2022-12-03T12:30:19.953Z,3.20
2022-12-03T12:32:50.851Z,3.20
2022-12-03T12:35:29.357Z,3.10
2022-12-03T12:38:10.859Z,3.20
2022-12-03T12:40:41.429Z,3.20
2022-12-03T12:43:24.752Z,3.30
2022-12-03T12:46:13.668Z,3.20
2022-12-03T12:48:47.882Z,3.10
2022-12-03T12:51:20.795Z,3.10
2022-12-03T12:53:49.266Z,3.10
2022-12-03T12:56:30.481Z,3.10
2022-12-03T12:59:09.499Z,3.00
2022-12-03T13:01:36.685Z,3.10
2022-12-03T13:04:12.448Z,3.10
2022-12-03T13:06:41.660Z,3.10
2022-12-03T13:09:30.174Z,3.20
2022-12-03T13:12:07.322Z,3.20
2022-12-03T13:14:37.326Z,3.20
2022-12-03T13:17:19.658Z,3.10
2022-12-03T13:19:50.705Z,3.20
2022-12-03T13:22:25.546Z,3.20
2022-12-03T13:24:59.062Z,3.20
2022-12-03T13:27:30.009Z,3.20
2022-12-03T13:30:01.091Z,3.10
2022-12-03T13:32:36.031Z,3.10
2022-12-03T13:35:30.113Z,3.10
2022-12-03T13:37:59.177Z,2.90
2022-12-03T13:40:33.114Z,2.90
2022-12-03T13:43:00.582Z,2.90
2022-12-03T13:45:40.040Z,2.90
2022-12-03T13:48:35.801Z,2.90
2022-12-03T13:51:24.602Z,2.90
2022-12-03T13:53:52.568Z,2.80
2022-12-03T13:56:39.028Z,2.90
2022-12-03T13:59:05.914Z,2.90
2022-12-03T14:01:32.842Z,3.00
2022-12-03T14:03:59.670Z,3.00
2022-12-03T14:06:27.800Z,3.00
2022-12-03T14:08:54.730Z,2.90
2022-12-03T14:11:39.763Z,2.90
2022-12-03T14:14:06.538Z,2.90
2022-12-03T14:16:33.422Z,2.90
2022-12-03T14:19:00.395Z,2.90
2022-12-03T14:21:27.134Z,2.90
2022-12-03T14:23:53.807Z,2.90
2022-12-03T14:26:20.504Z,2.70
2022-12-03T14:28:47.745Z,2.70
2022-12-03T14:31:15.150Z,2.80
2022-12-03T14:33:42.844Z,2.80
2022-12-03T14:36:10.863Z,2.70
2022-12-03T14:38:37.586Z,2.70
2022-12-03T14:41:04.411Z,2.70
2022-12-03T14:43:31.167Z,2.70
2022-12-03T14:45:57.846Z,2.70
2022-12-03T14:48:24.865Z,2.60
2022-12-03T14:50:52.261Z,2.60
2022-12-03T14:53:24.106Z,2.60
2022-12-03T14:55:55.911Z,2.60
2022-12-03T14:58:25.630Z,2.70
2022-12-03T15:00:54.532Z,2.70
2022-12-03T15:03:22.659Z,2.70
2022-12-03T15:05:52.175Z,2.60
2022-12-03T15:08:19.608Z,2.60
2022-12-03T15:10:47.021Z,2.60
2022-12-03T15:13:14.424Z,2.70
2022-12-03T15:15:41.411Z,2.80
2022-12-03T15:18:08.382Z,2.80
2022-12-03T15:20:36.007Z,2.80
2022-12-03T15:23:03.711Z,2.80
2022-12-03T15:25:30.748Z,2.80
2022-12-03T15:27:57.564Z,2.80
2022-12-03T15:30:24.323Z,2.70
2022-12-03T15:32:53.063Z,2.70
2022-12-03T15:35:23.696Z,2.70
2022-12-03T15:37:50.393Z,2.70
2022-12-03T15:40:17.797Z,2.70
2022-12-03T15:42:45.183Z,2.80
2022-12-03T15:45:15.333Z,2.80
2022-12-03T15:47:43.819Z,2.70
2022-12-03T15:50:12.122Z,2.70
2022-12-03T15:52:38.951Z,2.60
2022-12-03T15:55:06.366Z,2.70
2022-12-03T15:57:33.059Z,2.70
2022-12-03T16:00:00.046Z,2.70
2022-12-03T16:02:34.012Z,2.70
2022-12-03T16:05:09.991Z,2.70
2022-12-03T16:07:37.282Z,2.70
2022-12-03T16:10:08.403Z,2.60
2022-12-03T16:12:35.229Z,2.70
2022-12-03T16:15:02.126Z,2.80
2022-12-03T16:17:30.918Z,2.70
2022-12-03T16:19:57.596Z,2.70
2022-12-03T16:22:24.425Z,2.70
2022-12-03T16:24:52.474Z,2.70
2022-12-03T16:27:24.026Z,2.70
2022-12-03T16:29:52.658Z,2.60
2022-12-03T16:32:19.644Z,2.50
2022-12-03T16:34:46.350Z,2.60
2022-12-03T16:37:13.228Z,2.60
2022-12-03T16:39:40.056Z,2.50
2022-12-03T16:42:11.760Z,2.60
2022-12-03T16:45:01.763Z,2.50
2022-12-03T16:47:33.642Z,2.50
2022-12-03T16:50:04.035Z,2.50
2022-12-03T16:52:30.729Z,2.50
2022-12-03T16:54:57.595Z,2.40
2022-12-03T16:57:27.569Z,2.40
2022-12-03T16:59:58.168Z,2.50
2022-12-03T17:02:25.076Z,2.50
2022-12-03T17:04:52.871Z,2.50
2022-12-03T17:07:20.684Z,2.50
2022-12-03T17:09:49.087Z,2.60
2022-12-03T17:12:15.996Z,2.50
2022-12-03T17:14:42.732Z,2.50
2022-12-03T17:17:09.556Z,2.60
2022-12-03T17:19:36.322Z,2.60
2022-12-03T17:22:03.170Z,2.50
2022-12-03T17:24:30.114Z,2.50
2022-12-03T17:26:56.919Z,2.50
2022-12-03T17:29:23.619Z,2.60
2022-12-03T17:31:50.411Z,2.60
2022-12-03T17:34:17.124Z,2.50
2022-12-03T17:36:43.899Z,2.50
2022-12-03T17:39:11.590Z,2.50
2022-12-03T17:41:38.292Z,2.60
2022-12-03T17:44:11.338Z,2.60
2022-12-03T17:46:39.779Z,2.70
2022-12-03T17:49:06.529Z,2.60
2022-12-03T17:51:35.390Z,2.50
2022-12-03T17:54:02.079Z,2.40
2022-12-03T17:56:28.829Z,2.50
2022-12-03T17:58:57.062Z,2.50
2022-12-03T18:01:26.174Z,2.60
2022-12-03T18:03:53.027Z,2.50
2022-12-03T18:06:19.758Z,2.40
2022-12-03T18:08:46.418Z,2.50
2022-12-03T18:11:13.148Z,2.50
2022-12-03T18:13:39.825Z,2.40
2022-12-03T18:16:06.985Z,2.50
2022-12-03T18:18:33.832Z,2.50
2022-12-03T18:21:04.187Z,2.50
2022-12-03T18:23:34.557Z,2.40
2022-12-03T18:26:02.244Z,2.30
2022-12-03T18:28:31.131Z,2.30
2022-12-03T18:30:59.497Z,2.30
2022-12-03T18:33:27.775Z,2.30
2022-12-03T18:35:57.552Z,2.40
2022-12-03T18:38:30.886Z,2.40
2022-12-03T18:40:58.033Z,2.40
2022-12-03T18:43:28.190Z,2.30
2022-12-03T18:45:55.075Z,2.40
2022-12-03T18:48:21.833Z,2.40
2022-12-03T18:50:48.585Z,2.30
2022-12-03T18:53:18.711Z,2.30
2022-12-03T18:55:47.155Z,2.30
2022-12-03T18:58:13.937Z,2.20
2022-12-03T19:00:40.872Z,2.30
2022-12-03T19:03:07.718Z,2.30
2022-12-03T19:05:35.269Z,2.30
2022-12-03T19:08:03.439Z,2.40
2022-12-03T19:10:30.450Z,2.40
2022-12-03T19:12:57.504Z,2.40
2022-12-03T19:15:24.317Z,2.40
2022-12-03T19:17:53.088Z,2.30
2022-12-03T19:20:20.049Z,2.30
2022-12-03T19:22:46.904Z,2.30
2022-12-03T19:25:13.728Z,2.30
2022-12-03T19:27:40.496Z,2.30
2022-12-03T19:30:08.247Z,2.40
2022-12-03T19:32:35.500Z,2.30
2022-12-03T19:35:04.999Z,2.30
2022-12-03T19:37:33.641Z,2.40
2022-12-03T19:40:00.975Z,2.30
2022-12-03T19:42:27.869Z,2.30
2022-12-03T19:44:54.594Z,2.20
2022-12-03T19:47:24.687Z,2.20
2022-12-03T19:49:53.900Z,2.30
2022-12-03T19:52:20.911Z,2.20
2022-12-03T19:54:47.935Z,2.20
2022-12-03T19:57:19.709Z,2.20
2022-12-03T19:59:49.698Z,2.10
2022-12-03T20:02:16.543Z,2.20
2022-12-03T20:04:43.299Z,2.20
2022-12-03T20:07:11.283Z,2.20
2022-12-03T20:09:38.106Z,2.20
2022-12-03T20:12:05.084Z,2.10
2022-12-03T20:14:31.848Z,2.20
2022-12-03T20:16:58.663Z,2.20
2022-12-03T20:19:25.383Z,2.20
2022-12-03T20:21:52.079Z,2.20
2022-12-03T20:24:19.512Z,2.20
2022-12-03T20:26:46.544Z,2.20
2022-12-03T20:29:13.983Z,2.30
2022-12-03T20:31:40.797Z,2.30
2022-12-03T20:34:07.623Z,2.20
2022-12-03T20:36:35.609Z,2.20
2022-12-03T20:39:10.287Z,2.10
2022-12-03T20:41:37.903Z,2.10
2022-12-03T20:44:07.739Z,2.20
2022-12-03T20:46:35.246Z,2.20
2022-12-03T20:49:02.366Z,2.20
2022-12-03T20:51:30.768Z,2.00
2022-12-03T20:53:59.797Z,2.00
2022-12-03T20:56:34.189Z,2.00
2022-12-03T20:59:06.344Z,2.10
2022-12-03T21:01:35.782Z,2.20
2022-12-03T21:04:05.014Z,2.20
2022-12-03T21:06:35.738Z,2.20
2022-12-03T21:09:06.856Z,2.20
2022-12-03T21:11:35.781Z,2.20
2022-12-03T21:14:02.995Z,2.20
2022-12-03T21:17:05.918Z,2.20
2022-12-03T21:19:20.915Z,2.10
2022-12-03T21:21:48.353Z,2.10
2022-12-03T21:24:15.233Z,2.10
2022-12-03T21:26:43.636Z,2.20
2022-12-03T21:29:10.380Z,2.10
2022-12-03T21:31:40.730Z,2.10
2022-12-03T21:34:08.541Z,2.10
2022-12-03T21:36:35.463Z,2.10
2022-12-03T21:39:02.150Z,2.10
2022-12-03T21:41:29.020Z,2.10
2022-12-03T21:43:55.771Z,2.00
2022-12-03T21:47:08.438Z,2.00
2022-12-03T21:49:10.608Z,2.10
2022-12-03T21:51:37.587Z,2.10
2022-12-03T21:54:06.764Z,2.20
2022-12-03T21:56:33.543Z,2.10
2022-12-03T21:59:00.254Z,2.20
2022-12-03T22:01:29.246Z,2.20
2022-12-03T22:03:56.299Z,2.10
2022-12-03T22:06:23.196Z,2.20
2022-12-03T22:08:50.184Z,2.20
2022-12-03T22:11:23.538Z,2.20
2022-12-03T22:13:51.396Z,2.10
2022-12-03T22:16:21.341Z,2.10
2022-12-03T22:18:49.355Z,2.10
2022-12-03T22:21:19.527Z,2.00
2022-12-03T22:23:46.362Z,2.00
2022-12-03T22:26:17.098Z,2.00
2022-12-03T22:28:47.812Z,2.00
2022-12-03T22:31:17.176Z,2.00
2022-12-03T22:33:48.517Z,2.00
2022-12-03T22:36:20.947Z,2.00
2022-12-03T22:38:50.385Z,2.00
2022-12-03T22:41:18.023Z,2.00
2022-12-03T22:43:46.794Z,2.10
2022-12-03T22:46:14.105Z,2.10
2022-12-03T22:48:43.947Z,2.10
2022-12-03T22:51:22.791Z,2.10
2022-12-03T22:53:56.221Z,2.00
2022-12-03T22:56:23.987Z,2.10
2022-12-03T22:58:51.178Z,2.10
2022-12-03T23:01:46.376Z,2.00
2022-12-03T23:04:13.198Z,2.00
2022-12-03T23:06:41.458Z,2.00
2022-12-03T23:09:10.919Z,2.00
2022-12-03T23:11:38.421Z,2.00
2022-12-03T23:14:05.405Z,2.00
2022-12-03T23:16:34.273Z,2.00
2022-12-03T23:19:03.023Z,2.00
2022-12-03T23:21:35.043Z,2.00
2022-12-03T23:24:05.412Z,2.00
2022-12-03T23:26:37.273Z,2.10
2022-12-03T23:29:06.042Z,2.10
2022-12-03T23:31:34.810Z,2.10
2022-12-03T23:34:04.344Z,2.00
2022-12-03T23:36:33.442Z,2.00
2022-12-03T23:39:00.759Z,2.10
2022-12-03T23:41:27.775Z,2.10
2022-12-03T23:43:55.835Z,2.10
2022-12-03T23:46:27.323Z,2.10
2022-12-03T23:48:55.562Z,2.00
2022-12-03T23:51:25.205Z,2.00
2022-12-03T23:53:54.703Z,2.10
2022-12-03T23:56:30.346Z,2.00
2022-12-03T23:58:57.965Z,2.10
